Time;durP1;ratioP1;P1;durP2;ratioP2;P2;SDS_P1;SDS_P2;PMS_P1;PMS_P2;Temp;Humidity;BMP_temperature;BMP_pressure;BME280_temperature;BME280_humidity;BME280_pressure;Samples;Min_cycle;Max_cycle;Signal;HPM_P1;HPM_P2
2022/05/02 00:01:02;;;;;;;0.00;0.00;;;;;;;11.53;57.22;102289.97;5107481;28;20016;-79
2022/05/02 00:03:28;;;;;;;0.00;0.00;;;;;;;11.51;55.38;102291.72;5114287;28;20091;-79
2022/05/02 00:05:56;;;;;;;0.10;0.10;;;;;;;11.48;57.06;102299.69;5114286;28;20380;-79
2022/05/02 00:08:22;;;;;;;0.10;0.10;;;;;;;11.44;56.73;102289.94;5114001;28;20096;-79
2022/05/02 00:10:48;;;;;;;0.10;0.10;;;;;;;11.42;56.97;102294.38;5107605;28;20028;-79
2022/05/02 00:13:14;;;;;;;0.00;0.00;;;;;;;11.38;57.67;102285.53;5099328;28;20488;-79
2022/05/02 00:15:40;;;;;;;0.10;0.10;;;;;;;11.36;56.61;102297.03;5103610;28;20035;-78
2022/05/02 00:18:08;;;;;;;0.05;0.05;;;;;;;11.33;56.50;102293.50;5114098;28;20028;-79
2022/05/02 00:20:36;;;;;;;0.20;0.20;;;;;;;11.30;56.85;102292.59;5114262;28;20392;-79
2022/05/02 00:23:06;;;;;;;0.08;0.08;;;;;;;11.30;57.14;102296.16;5113059;28;20043;-79
2022/05/02 00:25:33;;;;;;;0.00;0.00;;;;;;;11.25;57.10;102292.63;5109566;28;20039;-78
2022/05/02 00:27:59;;;;;;;0.10;0.10;;;;;;;11.22;56.59;102282.00;5104178;28;20027;-79
2022/05/02 00:30:27;;;;;;;0.10;0.10;;;;;;;11.20;56.85;102288.19;5105105;28;20089;-79
2022/05/02 00:32:54;;;;;;;0.10;0.10;;;;;;;11.17;56.59;102286.41;5112823;28;20038;-79
2022/05/02 00:35:21;;;;;;;0.10;0.10;;;;;;;11.15;57.09;102278.47;5113529;28;20122;-78
2022/05/02 00:37:47;;;;;;;0.00;0.00;;;;;;;11.13;57.21;102274.91;5114311;28;20077;-78
2022/05/02 00:40:16;;;;;;;0.00;0.00;;;;;;;11.11;57.93;102275.81;5104581;28;20599;-78
2022/05/02 00:42:44;;;;;;;0.05;0.05;;;;;;;11.07;57.76;102274.03;5101387;28;20091;-78
2022/05/02 00:45:12;;;;;;;0.00;0.00;;;;;;;11.06;58.39;102272.25;5108196;28;20119;-77
2022/05/02 00:47:38;;;;;;;0.05;0.05;;;;;;;11.03;57.51;102277.56;5113929;28;20030;-78
2022/05/02 00:50:07;;;;;;;0.00;0.00;;;;;;;11.02;57.17;102275.81;5113388;28;20128;-77
2022/05/02 00:52:33;;;;;;;0.10;0.10;;;;;;;10.98;56.78;102270.47;5110976;28;20050;-78
2022/05/02 00:55:02;;;;;;;0.17;0.17;;;;;;;10.97;57.58;102274.00;5100661;28;20028;-78
2022/05/02 00:57:28;;;;;;;0.00;0.00;;;;;;;10.95;57.83;102267.84;5102420;28;20089;-78
2022/05/02 00:59:54;;;;;;;0.10;0.10;;;;;;;10.93;57.80;102271.34;5113753;28;20111;-77
2022/05/02 01:02:20;;;;;;;0.05;0.05;;;;;;;10.90;57.96;102272.22;5113653;28;20055;-78
2022/05/02 01:04:47;;;;;;;0.10;0.10;;;;;;;10.87;57.53;102266.94;5113723;28;20455;-78
2022/05/02 01:07:18;;;;;;;0.20;0.20;;;;;;;10.85;58.35;102266.03;5113407;28;20066;-77
2022/05/02 01:09:47;;;;;;;1.08;1.08;;;;;;;10.83;57.84;102270.47;5096109;28;20123;-77
2022/05/02 01:12:18;;;;;;;0.10;0.10;;;;;;;10.81;58.43;102272.22;5096667;28;20503;-78
2022/05/02 01:14:47;;;;;;;0.08;0.08;;;;;;;10.78;58.09;102262.50;5105186;28;20028;-78
2022/05/02 01:17:13;;;;;;;1.88;0.60;;;;;;;10.77;58.18;102271.34;5113760;28;20019;-77
2022/05/02 01:19:40;;;;;;;0.10;0.10;;;;;;;10.73;58.59;102266.00;5113954;28;20099;-78
2022/05/02 01:22:07;;;;;;;0.03;0.03;;;;;;;10.72;58.13;102264.28;5113359;28;20024;-78
2022/05/02 01:24:39;;;;;;;0.10;0.10;;;;;;;10.72;58.22;102254.53;5111030;28;20043;-78
2022/05/02 01:27:07;;;;;;;1.70;0.95;;;;;;;10.68;58.58;102258.06;5090673;28;20024;-77
2022/05/02 01:29:35;;;;;;;0.20;0.20;;;;;;;10.66;58.68;102254.53;5101076;28;20036;-77
2022/05/02 01:32:06;;;;;;;0.10;0.10;;;;;;;10.64;58.00;102265.13;5113605;28;20062;-77
2022/05/02 01:34:33;;;;;;;0.00;0.00;;;;;;;10.62;58.69;102258.94;5113456;28;20024;-78
2022/05/02 01:37:00;;;;;;;0.05;0.05;;;;;;;10.59;58.34;102256.28;5115054;28;20047;-77
2022/05/02 01:39:27;;;;;;;0.10;0.10;;;;;;;10.58;58.18;102257.16;5105938;28;20032;-78
2022/05/02 01:41:53;;;;;;;0.10;0.10;;;;;;;10.57;58.94;102252.72;5105586;28;20111;-78
2022/05/02 01:44:19;;;;;;;0.10;0.10;;;;;;;10.53;58.94;102250.97;5107032;28;20394;-78
2022/05/02 01:46:45;;;;;;;0.10;0.10;;;;;;;10.52;58.93;102258.00;5117182;28;20027;-78
2022/05/02 01:49:12;;;;;;;0.10;0.10;;;;;;;10.51;58.82;102252.72;5117038;28;20039;-78
2022/05/02 01:51:39;;;;;;;0.50;0.30;;;;;;;10.49;59.04;102244.78;5108988;28;20513;-78
2022/05/02 01:54:05;;;;;;;1.02;1.02;;;;;;;10.46;58.86;102244.75;5103271;28;20112;-78
2022/05/02 01:56:32;;;;;;;0.30;0.30;;;;;;;10.45;59.04;102248.28;5114389;28;20031;-77
2022/05/02 01:58:58;;;;;;;0.10;0.10;;;;;;;10.44;58.88;102240.31;5116573;28;20085;-77
2022/05/02 02:01:24;;;;;;;0.00;0.00;;;;;;;10.42;59.26;102239.41;5116005;28;20123;-77
2022/05/02 02:03:50;;;;;;;0.15;0.15;;;;;;;10.41;59.70;102248.28;5095581;28;20093;-78
2022/05/02 02:06:16;;;;;;;0.20;0.20;;;;;;;10.40;59.04;102243.84;5104016;28;20028;-77
2022/05/02 02:08:42;;;;;;;0.00;0.00;;;;;;;10.37;59.42;102244.72;5115459;28;20027;-77
2022/05/02 02:11:10;;;;;;;0.10;0.10;;;;;;;10.35;59.33;102242.06;5116087;28;20372;-78
2022/05/02 02:13:37;;;;;;;0.00;0.00;;;;;;;10.33;59.10;102237.59;5116258;28;20024;-77
2022/05/02 02:16:09;;;;;;;0.10;0.10;;;;;;;10.31;59.34;102234.94;5103816;27;20036;-78
2022/05/02 02:18:37;;;;;;;0.00;0.00;;;;;;;10.30;59.51;102233.19;5097976;28;20044;-77
2022/05/02 02:21:04;;;;;;;0.10;0.10;;;;;;;10.28;59.48;102228.75;5106238;28;20023;-78
2022/05/02 02:23:31;;;;;;;0.10;0.10;;;;;;;10.25;59.49;102229.63;5107614;28;20503;-77
2022/05/02 02:25:57;;;;;;;0.00;0.00;;;;;;;10.24;59.01;102222.56;5115832;28;20035;-78
2022/05/02 02:28:23;;;;;;;0.08;0.08;;;;;;;10.24;59.43;102238.44;5115893;28;20433;-78
2022/05/02 02:30:49;;;;;;;0.10;0.10;;;;;;;10.22;59.19;102236.66;5115917;28;20111;-78
2022/05/02 02:33:16;;;;;;;0.10;0.10;;;;;;;10.21;59.55;102233.16;5106261;28;20028;-78
2022/05/02 02:35:42;;;;;;;0.10;0.10;;;;;;;10.18;59.95;102243.72;5094552;28;20039;-78
2022/05/02 02:38:12;;;;;;;0.95;0.90;;;;;;;10.15;59.63;102239.28;5110284;28;20042;-78
2022/05/02 02:40:40;;;;;;;0.05;0.05;;;;;;;10.13;60.33;102230.47;5115438;28;20059;-78
2022/05/02 02:43:07;;;;;;;0.20;0.20;;;;;;;10.11;60.12;102240.16;5116172;28;20053;-78
2022/05/02 02:45:33;;;;;;;0.10;0.10;;;;;;;10.10;59.63;102237.53;5116047;28;20272;-77
2022/05/02 02:47:59;;;;;;;0.00;0.00;;;;;;;10.09;59.66;102233.09;5110908;28;20055;-77
2022/05/02 02:50:25;;;;;;;0.10;0.10;;;;;;;10.07;59.25;102226.91;5100864;28;20040;-78
2022/05/02 02:52:51;;;;;;;0.10;0.10;;;;;;;10.04;60.16;102222.47;5107142;28;20031;-78
2022/05/02 02:55:17;;;;;;;0.00;0.00;;;;;;;10.03;60.08;102229.56;5115946;28;20035;-78
2022/05/02 02:57:43;;;;;;;0.57;0.57;;;;;;;10.00;60.08;102226.88;5115861;28;20109;-77
2022/05/02 03:00:10;;;;;;;0.63;0.63;;;;;;;10.00;60.08;102218.06;5116010;28;20042;-78
2022/05/02 03:02:39;;;;;;;0.08;0.08;;;;;;;9.97;60.49;102221.56;5108139;28;20039;-77
2022/05/02 03:07:51;;;;;;;0.10;0.10;;;;;;;9.93;59.84;102221.53;5074520;28;20039;-77
2022/05/02 03:10:18;;;;;;;0.10;0.10;;;;;;;9.92;59.89;102219.78;5074438;28;20492;-78
2022/05/02 03:12:45;;;;;;;0.10;0.10;;;;;;;9.89;60.02;102210.06;5073952;28;20047;-78
2022/05/02 03:15:11;;;;;;;1.00;1.00;;;;;;;9.87;60.05;102217.13;5076203;28;20397;-78
2022/05/02 03:17:37;;;;;;;0.10;0.10;;;;;;;9.86;60.72;102215.34;5103694;28;20106;-78
2022/05/02 03:20:04;;;;;;;0.10;0.10;;;;;;;9.86;60.68;102216.22;5107758;28;20468;-77
2022/05/02 03:22:30;;;;;;;1.80;1.65;;;;;;;9.87;60.61;102214.47;5115198;28;20027;-78
2022/05/02 03:24:57;;;;;;;0.10;0.10;;;;;;;9.87;60.34;102217.13;5115037;28;20033;-78
2022/05/02 03:27:23;;;;;;;0.05;0.05;;;;;;;9.87;60.79;102212.69;5115121;28;20486;-78
2022/05/02 03:29:49;;;;;;;0.10;0.10;;;;;;;9.88;59.88;102205.63;5114895;28;20513;-78
2022/05/02 03:32:15;;;;;;;0.28;0.28;;;;;;;9.89;60.96;102215.34;5108231;28;20024;-78
2022/05/02 03:34:41;;;;;;;0.57;0.57;;;;;;;9.88;60.44;102208.28;5102916;28;20067;-78
2022/05/02 03:37:07;;;;;;;0.10;0.10;;;;;;;9.87;60.91;102206.53;5109409;28;20062;-78
2022/05/02 03:39:33;;;;;;;0.10;0.10;;;;;;;9.87;60.61;102211.84;5114666;28;20027;-78
2022/05/02 03:41:59;;;;;;;0.47;0.43;;;;;;;9.86;60.73;102202.97;5113928;28;20032;-78
2022/05/02 03:44:25;;;;;;;0.10;0.10;;;;;;;9.87;60.63;102209.19;5114089;28;20451;-79
2022/05/02 03:46:51;;;;;;;0.75;0.75;;;;;;;9.85;61.14;102209.16;5114301;28;20046;-79
2022/05/02 03:49:17;;;;;;;0.15;0.15;;;;;;;9.84;60.84;102207.41;5096615;28;20031;-79
2022/05/02 03:51:43;;;;;;;0.10;0.10;;;;;;;9.83;61.21;102208.28;5092214;28;20036;-79
2022/05/02 03:54:09;;;;;;;0.10;0.10;;;;;;;9.81;60.95;102207.38;5108533;28;20110;-79
2022/05/02 03:56:36;;;;;;;0.70;0.70;;;;;;;9.82;61.43;102213.53;5113996;28;20035;-79
2022/05/02 03:59:03;;;;;;;0.00;0.00;;;;;;;9.81;61.25;102212.66;5113546;28;20371;-79
2022/05/02 04:01:29;;;;;;;0.10;0.10;;;;;;;9.82;60.64;102210.91;5110825;28;20032;-78
2022/05/02 04:03:55;;;;;;;0.00;0.00;;;;;;;9.81;61.33;102214.44;5077160;28;20116;-78
2022/05/02 04:06:21;;;;;;;0.10;0.10;;;;;;;9.83;60.89;102207.38;5099830;28;20507;-79
2022/05/02 04:08:47;;;;;;;0.10;0.10;;;;;;;9.82;60.36;102214.44;5100684;28;20043;-79
2022/05/02 04:11:13;;;;;;;0.45;0.45;;;;;;;9.83;60.76;102213.56;5092452;28;20036;-79
2022/05/02 04:13:39;;;;;;;0.10;0.10;;;;;;;9.83;60.68;102215.31;5092877;28;20101;-79
2022/05/02 04:16:05;;;;;;;0.80;0.80;;;;;;;9.83;60.86;102210.03;5093055;28;20032;-79
2022/05/02 04:18:31;;;;;;;0.00;0.00;;;;;;;9.83;60.80;102210.94;5085085;28;20065;-79
2022/05/02 04:20:57;;;;;;;0.13;0.13;;;;;;;9.84;60.91;102218.00;5095900;28;20051;-79
2022/05/02 04:23:23;;;;;;;0.10;0.10;;;;;;;9.84;60.81;102223.28;5105332;28;20040;-79
2022/05/02 04:25:49;;;;;;;0.10;0.10;;;;;;;9.86;61.34;102220.66;5113716;28;20028;-79
2022/05/02 04:28:15;;;;;;;0.10;0.10;;;;;;;9.87;60.58;102219.78;5114304;28;20035;-79
2022/05/02 04:30:41;;;;;;;0.20;0.20;;;;;;;9.86;61.30;102223.28;5110785;28;20070;-78
2022/05/02 04:33:08;;;;;;;0.28;0.28;;;;;;;9.87;60.93;102227.72;5095030;28;20032;-78
2022/05/02 04:35:34;;;;;;;0.10;0.10;;;;;;;9.87;61.27;102225.06;5104077;28;20043;-79
2022/05/02 04:38:01;;;;;;;0.10;0.10;;;;;;;9.89;61.46;102228.59;5114522;28;20028;-79
2022/05/02 04:40:27;;;;;;;0.10;0.10;;;;;;;9.87;60.89;102228.59;5113842;28;20019;-78
2022/05/02 04:42:53;;;;;;;0.10;0.10;;;;;;;9.88;61.33;102224.16;5113335;28;20110;-79
2022/05/02 04:45:19;;;;;;;0.15;0.15;;;;;;;9.88;61.60;102229.47;5105294;28;20081;-79
2022/05/02 04:47:45;;;;;;;0.20;0.20;;;;;;;9.90;61.18;102232.13;5102636;28;20523;-79
2022/05/02 04:50:11;;;;;;;0.05;0.05;;;;;;;9.90;61.62;102222.41;5105045;28;20066;-79
2022/05/02 04:52:37;;;;;;;0.10;0.10;;;;;;;9.93;60.93;102222.44;5113380;28;20488;-78
2022/05/02 04:55:03;;;;;;;0.00;0.00;;;;;;;9.96;61.64;102221.56;5113167;28;20047;-78
2022/05/02 04:57:30;;;;;;;0.00;0.00;;;;;;;9.97;61.24;102224.22;5113494;28;20027;-78
2022/05/02 04:59:56;;;;;;;0.10;0.10;;;;;;;9.98;61.29;102226.00;5113837;28;20506;-79
2022/05/02 05:02:22;;;;;;;0.03;0.03;;;;;;;10.01;61.65;102226.00;5096520;28;20035;-79
2022/05/02 05:04:48;;;;;;;0.10;0.10;;;;;;;10.06;61.26;102227.81;5104497;28;20036;-78
2022/05/02 05:07:14;;;;;;;0.10;0.10;;;;;;;10.09;61.28;102227.81;5113578;28;20071;-78
2022/05/02 05:09:40;;;;;;;0.00;0.00;;;;;;;10.10;61.73;102229.59;5113115;28;20031;-78
2022/05/02 05:12:39;;;;;;;0.10;0.10;;;;;;;10.24;61.01;102234.94;5115038;28;20031;-79
2022/05/02 05:18:51;;;;;;;0.10;0.10;;;;;;;10.29;61.03;102226.13;5117934;22;20041;-77
2022/05/02 05:21:33;;;;;;;0.10;0.10;;;;;;;10.32;61.27;102226.13;5057011;28;20097;-77
2022/05/02 05:24:34;;;;;;;0.10;0.10;;;;;;;10.38;61.20;102227.97;5060800;28;20024;-77
2022/05/02 05:27:30;;;;;;;0.10;0.10;;;;;;;10.45;60.65;102231.50;5064547;28;20035;-77
2022/05/02 05:35:37;;;;;;;0.10;0.10;;;;;;;10.49;61.22;102225.31;5048804;28;20396;-77
2022/05/02 05:38:10;;;;;;;0.00;0.00;;;;;;;10.55;61.34;102227.97;5050531;28;20495;-77
2022/05/02 05:40:39;;;;;;;0.03;0.03;;;;;;;10.57;60.79;102236.84;5048994;28;20029;-77
2022/05/02 05:46:39;;;;;;;0.10;0.10;;;;;;;10.74;61.42;102225.38;5111973;27;20400;-77
2022/05/02 05:52:36;;;;;;;0.10;0.10;;;;;;;10.81;61.74;102241.28;5131768;27;20367;-77
2022/05/02 05:55:06;;;;;;;0.10;0.10;;;;;;;10.81;61.49;102235.09;5130103;28;20066;-77
2022/05/02 05:57:59;;;;;;;0.10;0.10;;;;;;;10.89;60.81;102243.06;5133592;27;20031;-77
2022/05/02 06:00:29;;;;;;;0.10;0.10;;;;;;;10.88;61.04;102234.25;5136678;28;20027;-77
2022/05/02 06:05:39;;;;;;;0.00;0.00;;;;;;;11.00;61.12;102236.00;5090145;28;20129;-77
2022/05/02 06:08:13;;;;;;;0.05;0.05;;;;;;;11.05;61.74;102243.97;5088887;28;20021;-76
2022/05/02 06:10:42;;;;;;;0.00;0.00;;;;;;;11.11;60.80;102238.66;5101547;28;20032;-75
2022/05/02 06:13:09;;;;;;;0.10;0.10;;;;;;;11.13;61.57;102237.78;5095703;28;20468;-77
2022/05/02 06:18:29;;;;;;;0.00;0.00;;;;;;;11.27;60.94;102237.78;5088807;28;20048;-77
2022/05/02 06:21:00;;;;;;;0.10;0.10;;;;;;;11.36;59.86;102233.34;5088670;28;20093;-76
2022/05/02 06:23:30;;;;;;;0.10;0.10;;;;;;;11.39;60.03;102241.28;5086610;28;20508;-76
2022/05/02 06:25:57;;;;;;;0.00;0.00;;;;;;;11.44;60.04;102244.81;5086467;28;20036;-76
2022/05/02 06:28:31;;;;;;;1.00;0.20;;;;;;;11.53;60.24;102241.31;5088295;28;20109;-77
2022/05/02 06:31:00;;;;;;;0.40;0.40;;;;;;;11.58;59.68;102239.53;5087644;28;20436;-77
2022/05/02 06:33:26;;;;;;;0.00;0.00;;;;;;;11.62;60.31;102242.16;5088513;28;20036;-77
2022/05/02 06:36:19;;;;;;;1.10;1.10;;;;;;;11.74;59.60;102241.25;5087644;28;20032;-77
2022/05/02 06:42:01;;;;;;;0.10;0.10;;;;;;;11.94;59.40;102249.16;5150724;27;20337;-77
2022/05/02 06:50:27;;;;;;;0.30;0.30;;;;;;;12.10;58.66;102238.50;5108950;27;20408;-77
2022/05/02 06:53:25;;;;;;;0.20;0.20;;;;;;;12.22;58.78;102230.47;5104609;28;20034;-76
2022/05/02 06:56:10;;;;;;;0.10;0.10;;;;;;;12.29;58.20;102229.56;5087816;28;20028;-77
2022/05/02 07:01:50;;;;;;;0.00;0.00;;;;;;;12.51;57.80;102232.13;5108363;27;20398;-77
2022/05/02 07:04:43;;;;;;;0.00;0.00;;;;;;;12.60;58.25;102233.84;5108784;28;20081;-77
2022/05/02 07:09:55;;;;;;;0.75;0.75;;;;;;;12.67;58.18;102232.00;5068526;28;20142;-77
2022/05/02 07:12:25;;;;;;;0.00;0.00;;;;;;;12.78;57.71;102227.50;5066820;28;20037;-77
2022/05/02 07:20:45;;;;;;;0.00;0.00;;;;;;;13.06;57.55;102229.94;5105263;27;20148;-76
2022/05/02 07:26:14;;;;;;;0.30;0.30;;;;;;;13.26;56.77;102236.00;5085984;28;20133;-76
2022/05/02 07:31:25;;;;;;;0.00;0.00;;;;;;;13.42;55.76;102233.22;5088097;28;20676;-76
2022/05/02 07:33:53;;;;;;;0.17;0.10;;;;;;;13.46;55.80;102232.31;5058269;28;20047;-76
2022/05/02 07:36:22;;;;;;;5.68;0.75;;;;;;;13.60;55.93;102226.84;5037424;28;20127;-76
2022/05/02 07:39:02;;;;;;;0.08;0.08;;;;;;;13.73;55.92;102225.81;5036079;28;20434;-76
2022/05/02 07:41:29;;;;;;;0.00;0.00;;;;;;;13.76;55.89;102230.22;5031437;28;20025;-76
2022/05/02 07:44:00;;;;;;;0.32;0.32;;;;;;;13.87;55.60;102230.09;5026683;28;20511;-74
2022/05/02 07:46:30;;;;;;;0.00;0.00;;;;;;;13.97;55.45;102225.53;5027570;28;20125;-76
2022/05/02 07:49:01;;;;;;;0.00;0.00;;;;;;;14.06;55.02;102231.63;5028247;28;20073;-77
2022/05/02 07:51:27;;;;;;;0.10;0.10;;;;;;;14.15;55.11;102221.75;5027099;28;20098;-76
2022/05/02 07:53:55;;;;;;;0.45;0.45;;;;;;;14.22;55.07;102224.31;5028576;28;20026;-74
2022/05/02 07:56:23;;;;;;;0.15;0.15;;;;;;;14.32;54.98;102222.41;5036920;28;20037;-75
2022/05/02 07:58:53;;;;;;;1.00;0.52;;;;;;;14.39;54.30;102220.53;5027241;28;20156;-76
2022/05/02 08:01:21;;;;;;;0.10;0.10;;;;;;;14.48;54.48;102231.09;5027072;28;20030;-76
2022/05/02 08:03:48;;;;;;;0.32;0.32;;;;;;;14.56;54.15;102223.84;5027495;28;20029;-76
2022/05/02 08:09:11;;;;;;;0.95;0.95;;;;;;;14.80;53.75;102231.56;5067089;28;20437;-77
2022/05/02 08:12:01;;;;;;;0.50;0.50;;;;;;;14.93;53.44;102233.13;5060397;28;20032;-76
2022/05/02 08:14:47;;;;;;;0.75;0.75;;;;;;;15.03;52.95;102224.06;5067511;28;20020;-77
2022/05/02 08:31:19;;;;;;;0.00;0.00;;;;;;;15.55;50.13;102231.19;5107668;27;20385;-76
2022/05/02 08:33:57;;;;;;;0.20;0.17;;;;;;;15.63;49.74;102235.47;5108056;28;20038;-76
2022/05/02 08:36:38;;;;;;;2.30;0.55;;;;;;;15.81;50.40;102228.91;5106943;28;20043;-76
2022/05/02 08:39:06;;;;;;;0.05;0.05;;;;;;;15.83;49.18;102232.44;5105515;28;20039;-77
2022/05/02 08:41:57;;;;;;;0.20;0.20;;;;;;;16.03;49.41;102223.13;5102673;28;20020;-75
2022/05/02 08:44:46;;;;;;;0.10;0.10;;;;;;;16.10;48.68;102214.06;5108040;28;20040;-76
2022/05/02 08:47:45;;;;;;;0.08;0.08;;;;;;;16.14;48.97;102215.75;5108426;28;20401;-79
2022/05/02 08:58:42;;;;;;;0.15;0.15;;;;;;;16.56;47.31;102217.53;5108309;27;20384;-76
2022/05/02 09:09:29;;;;;;;0.20;0.20;;;;;;;16.96;44.19;102216.59;5087986;27;20397;-77
2022/05/02 09:20:35;;;;;;;0.10;0.10;;;;;;;17.33;43.26;102206.72;5149071;27;20369;-76
2022/05/02 09:23:38;;;;;;;1.15;1.08;;;;;;;17.44;43.17;102196.59;5149041;27;20049;-77
2022/05/02 09:34:56;;;;;;;0.00;0.00;;;;;;;17.74;42.13;102193.09;5068371;28;20398;-76
2022/05/02 09:37:36;;;;;;;;;;;;;;;17.96;41.44;102188.03;5068688;28;20028;-76
2022/05/02 09:40:08;;;;;;;0.20;0.20;;;;;;;17.92;40.98;102186.34;5065820;28;19995;-78
2022/05/02 09:42:54;;;;;;;;;;;;;;;18.14;41.40;102188.41;5066445;28;20028;-77
2022/05/02 09:52:02;;;;;;;0.05;0.05;;;;;;;18.35;39.46;102185.06;5078896;27;20413;-76
2022/05/02 09:58:12;;;;;;;0.03;0.03;;;;;;;18.62;40.25;102182.44;5044497;27;20403;-77
2022/05/02 10:01:07;;;;;;;0.10;0.10;;;;;;;18.70;39.58;102180.34;5042458;28;20639;-75
2022/05/02 10:03:55;;;;;;;0.00;0.00;;;;;;;18.66;39.44;102181.38;5047701;28;20043;-77
2022/05/02 10:06:31;;;;;;;0.00;0.00;;;;;;;18.82;40.30;102180.91;5045297;27;20168;-75
2022/05/02 10:09:25;;;;;;;0.22;0.22;;;;;;;18.92;39.05;102185.06;5044743;28;20025;-76
2022/05/02 10:12:30;;;;;;;0.32;0.32;;;;;;;19.02;38.79;102175.75;5043554;28;20029;-76
2022/05/02 10:24:16;;;;;;;0.10;0.10;;;;;;;19.26;38.09;102173.13;5108518;27;20742;-76
2022/05/02 10:26:50;;;;;;;0.15;0.15;;;;;;;19.18;36.44;102169.88;5108775;28;20096;-77
2022/05/02 10:29:47;;;;;;;0.00;0.00;;;;;;;19.31;37.35;102165.78;5108592;28;20131;-76
2022/05/02 10:34:54;;;;;;;0.30;0.30;;;;;;;19.35;35.46;102166.56;5066682;28;20402;-77
2022/05/02 10:37:28;;;;;;;0.25;0.25;;;;;;;19.52;35.78;102164.13;5048061;28;20044;-77
2022/05/02 10:40:04;;;;;;;0.05;0.05;;;;;;;19.61;36.09;102162.03;5047950;28;20025;-77
2022/05/02 10:42:33;;;;;;;1.55;1.00;;;;;;;19.63;35.71;102163.75;5046495;28;20421;-74
2022/05/02 10:51:26;;;;;;;0.32;0.30;;;;;;;19.91;35.10;102148.41;5118813;27;20387;-78
2022/05/02 10:54:27;;;;;;;0.65;0.65;;;;;;;19.86;35.78;102151.25;5112825;28;20028;-78
2022/05/02 10:57:03;;;;;;;0.00;0.00;;;;;;;19.88;35.49;102144.03;5124509;28;20408;-77
2022/05/02 10:59:34;;;;;;;0.80;0.80;;;;;;;19.88;35.57;102149.41;5108617;27;20056;-78
2022/05/02 11:02:36;;;;;;;0.00;0.00;;;;;;;20.07;35.24;102143.31;5131470;27;20024;-78
2022/05/02 11:05:06;;;;;;;0.00;0.00;;;;;;;20.08;35.91;102145.94;5111164;28;20027;-78
2022/05/02 11:10:20;;;;;;;0.30;0.30;;;;;;;20.16;35.31;102149.22;5096193;27;20968;-79
2022/05/02 11:16:04;;;;;;;0.13;0.13;;;;;;;20.40;34.08;102141.09;5078153;28;20383;-77
2022/05/02 11:24:21;;;;;;;0.80;0.80;;;;;;;20.70;32.51;102138.06;5112862;27;20406;-76
2022/05/02 11:27:04;;;;;;;0.30;0.30;;;;;;;20.74;32.83;102133.47;5112712;27;20039;-80
2022/05/02 11:35:30;;;;;;;0.00;0.00;;;;;;;20.92;32.48;102131.78;5104554;27;20139;-79
2022/05/02 11:38:22;;;;;;;0.20;0.20;;;;;;;20.99;30.02;102125.19;5083313;28;20200;-79
2022/05/02 11:40:57;;;;;;;0.10;0.10;;;;;;;20.97;30.01;102127.06;5089905;28;20501;-79
2022/05/02 11:43:24;;;;;;;0.00;0.00;;;;;;;20.94;30.66;102121.81;5091084;28;20073;-80
2022/05/02 11:46:15;;;;;;;0.00;0.00;;;;;;;21.07;29.92;102119.47;5090653;28;20052;-79
2022/05/02 11:49:02;;;;;;;1.27;1.17;;;;;;;21.07;29.01;102119.47;5089596;28;20559;-79
2022/05/02 11:54:34;;;;;;;0.03;0.03;;;;;;;21.27;30.09;102122.16;5091645;27;20389;-81
2022/05/02 11:57:22;;;;;;;0.00;0.00;;;;;;;21.50;30.41;102114.84;5091498;28;20119;-81
2022/05/02 12:00:12;;;;;;;0.15;0.15;;;;;;;21.56;30.01;102105.59;5091232;28;20262;-82
2022/05/02 12:08:04;;;;;;;0.00;0.00;;;;;;;21.53;29.59;102109.28;5106119;27;20394;-80
2022/05/02 12:10:47;;;;;;;0.25;0.25;;;;;;;21.67;29.83;102110.50;5090007;28;20047;-80
2022/05/02 12:13:19;;;;;;;1.00;1.00;;;;;;;21.58;28.99;102110.00;5085353;28;20118;-78
2022/05/02 12:16:09;;;;;;;0.10;0.10;;;;;;;21.79;28.82;102101.84;5088251;28;20020;-79
2022/05/02 12:18:41;;;;;;;0.10;0.10;;;;;;;21.78;30.31;102111.75;5089321;28;20036;-80
2022/05/02 12:21:13;;;;;;;0.10;0.10;;;;;;;21.93;30.65;102112.84;5086819;28;20055;-80
2022/05/02 12:23:42;;;;;;;0.20;0.20;;;;;;;21.88;31.32;102104.13;5090182;28;20115;-79
2022/05/02 12:26:24;;;;;;;0.10;0.10;;;;;;;22.03;29.78;102104.31;5089374;28;20028;-80
2022/05/02 12:28:55;;;;;;;0.10;0.10;;;;;;;22.06;29.87;102104.19;5089394;28;20103;-79
2022/05/02 12:31:27;;;;;;;0.08;0.08;;;;;;;22.19;29.88;102094.50;5088523;28;20063;-80
2022/05/02 12:33:57;;;;;;;0.10;0.10;;;;;;;22.33;30.30;102092.94;5087881;28;20228;-80
2022/05/02 12:36:33;;;;;;;0.13;0.13;;;;;;;22.42;29.67;102097.94;5085091;28;20044;-79
2022/05/02 12:39:04;;;;;;;0.10;0.10;;;;;;;22.45;30.35;102095.06;5102271;28;20081;-79
2022/05/02 12:41:46;;;;;;;0.00;0.00;;;;;;;22.51;29.03;102088.50;5108898;28;20438;-80
2022/05/02 12:44:13;;;;;;;0.05;0.05;;;;;;;22.45;29.51;102085.16;5109559;27;20020;-80
2022/05/02 12:46:46;;;;;;;0.10;0.10;;;;;;;22.55;28.54;102080.13;5109242;27;20016;-80
2022/05/02 12:49:19;;;;;;;;;;;;;;;22.58;28.27;102076.41;5100440;27;20550;-80
2022/05/02 12:51:54;;;;;;;0.00;0.00;;;;;;;22.55;30.15;102085.53;5087161;28;20000;-80
2022/05/02 12:54:22;;;;;;;0.03;0.03;;;;;;;22.56;29.72;102081.88;5088667;28;20043;-80
2022/05/02 13:02:34;;;;;;;0.20;0.20;;;;;;;22.93;28.22;102074.56;5087941;28;20390;-80
2022/05/02 13:05:05;;;;;;;0.38;0.38;;;;;;;22.93;29.63;102077.28;5088733;28;20036;-80
2022/05/02 13:07:41;;;;;;;0.03;0.03;;;;;;;23.14;29.50;102073.50;5088829;28;20486;-80
2022/05/02 13:10:29;;;;;;;0.00;0.00;;;;;;;23.27;28.47;102074.63;5087508;28;20044;-79
2022/05/02 13:15:41;;;;;;;0.03;0.03;;;;;;;23.25;27.95;102058.50;5111372;27;20400;-80
2022/05/02 13:21:12;;;;;;;0.10;0.10;;;;;;;23.47;28.51;102059.16;5109458;27;20383;-80
2022/05/02 13:23:43;;;;;;;0.00;0.00;;;;;;;23.45;28.04;102053.81;5107555;28;20039;-79
2022/05/02 13:26:42;;;;;;;0.70;0.40;;;;;;;23.52;27.20;102044.41;5108949;28;20030;-81
2022/05/02 13:32:10;;;;;;;0.10;0.10;;;;;;;23.50;27.05;102043.63;5093529;27;1843061;-81
2022/05/02 13:35:00;;;;;;;0.25;0.25;;;;;;;23.69;27.79;102032.63;5132360;28;20039;-81
2022/05/02 13:37:50;;;;;;;0.50;0.50;;;;;;;23.82;27.82;102029.25;5132755;28;20208;-80
2022/05/02 13:40:20;;;;;;;0.00;0.00;;;;;;;23.92;27.23;102032.31;5113404;28;20096;-81
2022/05/02 13:43:11;;;;;;;0.45;0.45;;;;;;;23.99;27.92;102028.28;5103041;28;20024;-81
2022/05/02 13:48:40;;;;;;;0.00;0.00;;;;;;;24.06;26.68;102021.53;5091884;27;20381;-79
2022/05/02 13:51:19;;;;;;;;;;;;;;;24.07;26.80;102017.88;5071052;28;20028;-78
2022/05/02 13:56:56;;;;;;;0.10;0.10;;;;;;;24.00;28.03;102016.50;5068386;28;20417;-78
2022/05/02 13:59:53;;;;;;;0.40;0.40;;;;;;;24.08;27.98;102014.22;5068407;28;20055;-78
2022/05/02 14:03:08;;;;;;;0.10;0.10;;;;;;;24.19;27.61;102016.31;5068025;28;20529;-76
2022/05/02 14:11:16;;;;;;;0.28;0.28;;;;;;;24.26;27.11;102016.78;5109244;27;20388;-76
2022/05/02 14:13:46;;;;;;;0.10;0.10;;;;;;;24.21;25.95;102015.25;5108693;28;20028;-80
2022/05/02 14:16:13;;;;;;;0.13;0.13;;;;;;;24.34;26.92;102014.50;5109494;28;20039;-80
2022/05/02 14:18:57;;;;;;;0.08;0.08;;;;;;;24.42;25.79;102012.19;5109989;27;20035;-80
2022/05/02 14:21:26;;;;;;;0.20;0.20;;;;;;;24.35;26.90;102010.81;5109141;28;20020;-80
2022/05/02 14:23:57;;;;;;;0.00;0.00;;;;;;;24.36;26.85;102007.16;5109280;28;20024;-80
2022/05/02 14:26:25;;;;;;;0.10;0.10;;;;;;;24.34;27.26;102009.09;5109807;27;20027;-80
2022/05/02 14:28:53;;;;;;;0.30;0.15;;;;;;;24.36;25.93;102008.03;5100354;28;20028;-81
2022/05/02 14:31:21;;;;;;;0.22;0.22;;;;;;;24.36;26.50;102007.16;5108863;28;20063;-80
2022/05/02 14:33:49;;;;;;;0.00;0.00;;;;;;;24.47;27.06;101999.25;5109964;27;20027;-80
2022/05/02 14:36:18;;;;;;;0.15;0.15;;;;;;;24.49;26.53;102007.31;5108825;28;20397;-80
2022/05/02 14:38:46;;;;;;;0.57;0.57;;;;;;;24.39;25.49;101998.84;5107813;28;20034;-80
2022/05/02 14:41:13;;;;;;;0.22;0.20;;;;;;;24.45;26.83;101995.78;5108810;28;20054;-78
2022/05/02 14:43:39;;;;;;;0.00;0.00;;;;;;;24.65;26.54;101990.97;5110136;28;20031;-80
2022/05/02 14:46:07;;;;;;;0.20;0.20;;;;;;;24.60;27.55;101983.13;5109404;28;20024;-80
2022/05/02 14:48:34;;;;;;;0.20;0.20;;;;;;;24.67;27.47;101983.66;5109578;28;20389;-80
2022/05/02 14:51:04;;;;;;;0.20;0.20;;;;;;;24.84;26.85;101988.88;5107349;28;20038;-81